Boone County Information

FAA: HRO - ICAO: KHRO

Boone County (Airport) Location

State Arkansas
County Boone
City Harrison
Boone County (Airport) is 3 miles northwest of Harrison, AR.
Latitude 36-15-41.4740N
Longitude 093-09-17.0240W
Elevation 1,364ft

Boone County METARs

METAR KHRO 301653Z AUTO 06005KT 10SM CLR 18/03 A3013 RMK AO2 SLP196 T01830033
Altimeter 30.13"
Temperature 18.3°C (64.9°F)
Wind 60° at 5KT
Clouds Skies are clear.
Visibility 10.0mi
Time observed: 2021-11-30T16:53:00Z

Boone County (Airport) Details

Status Operational
Activation December 1944
Ownership Public
Usage Public
Chart KANSAS CITY
ATC on-site No
Beacon schedule sunset-sunrise
Beacon color clear green

Boone County (Airport) Contacts

Owner BOONE COUNTY
Owner address 100 N MAIN SUITE 300, HARRISON, AR 72601
Owner phone 870-741-5760
Manager RICHARD KINCAID
Manager address PO BOX 477, GREENBRIER, AR 72058
Manager phone 501-679-4778

Boone County Radio Frequencies

Boone County (Airport) Radio Frequencies

UNICOM 123
Common traffic advisory frequency (CTAF) 123